createdAt,value
2017-08-12T00:00:00.606Z,0
2017-08-12T00:01:02.102Z,0
2017-08-12T00:02:03.560Z,0
2017-08-12T00:03:05.104Z,0
2017-08-12T00:04:06.591Z,0
2017-08-12T00:05:08.336Z,0
2017-08-12T00:06:09.804Z,0
2017-08-12T00:07:11.272Z,0
2017-08-12T00:08:12.747Z,0
2017-08-12T00:09:14.288Z,0
2017-08-12T00:10:15.759Z,0
2017-08-12T00:11:17.224Z,0
2017-08-12T00:12:18.673Z,0
2017-08-12T00:13:20.129Z,0
2017-08-12T00:14:21.597Z,0
2017-08-12T00:15:23.118Z,0
2017-08-12T00:16:24.609Z,0
2017-08-12T00:17:26.095Z,0
2017-08-12T00:18:27.570Z,0
2017-08-12T00:19:29.121Z,0
2017-08-12T00:20:30.612Z,0
2017-08-12T00:21:32.174Z,0
2017-08-12T00:22:33.663Z,0
2017-08-12T00:23:35.161Z,0
2017-08-12T00:24:36.661Z,0
2017-08-12T00:25:38.163Z,0
2017-08-12T00:26:39.616Z,0
2017-08-12T00:27:41.101Z,0
2017-08-12T00:28:42.552Z,0
2017-08-12T00:29:44.107Z,0
2017-08-12T00:30:45.597Z,0
2017-08-12T00:31:47.084Z,0
2017-08-12T00:32:48.568Z,0
2017-08-12T00:33:50.092Z,0
2017-08-12T00:34:51.620Z,0
2017-08-12T00:35:53.056Z,0
2017-08-12T00:36:54.534Z,0
2017-08-12T00:37:56.046Z,0
2017-08-12T00:38:57.477Z,0
2017-08-12T00:39:59.009Z,0
2017-08-12T00:41:00.482Z,0
2017-08-12T00:42:02.015Z,0
2017-08-12T00:43:03.468Z,0
2017-08-12T00:44:05.002Z,0
2017-08-12T00:45:06.468Z,0
2017-08-12T00:46:08.043Z,0
2017-08-12T00:47:09.497Z,0
2017-08-12T00:48:10.949Z,0
2017-08-12T00:49:12.398Z,0
2017-08-12T00:50:13.958Z,0
2017-08-12T00:51:15.406Z,0
2017-08-12T00:52:16.955Z,0
2017-08-12T00:53:18.396Z,0
2017-08-12T00:54:19.881Z,0
2017-08-12T00:55:21.346Z,0
2017-08-12T00:56:22.879Z,0
2017-08-12T00:57:24.333Z,0
2017-08-12T00:58:25.890Z,0
2017-08-12T00:59:27.341Z,0
2017-08-12T01:00:28.888Z,0
2017-08-12T01:01:30.375Z,0
2017-08-12T01:02:31.898Z,0
2017-08-12T01:03:33.369Z,0
2017-08-12T01:04:34.834Z,0
2017-08-12T01:05:36.309Z,0
2017-08-12T01:06:37.818Z,0
2017-08-12T01:07:39.279Z,0
2017-08-12T01:08:40.833Z,0
2017-08-12T01:09:42.315Z,0
2017-08-12T01:10:43.792Z,0
2017-08-12T01:11:45.241Z,0
2017-08-12T01:12:46.838Z,0
2017-08-12T01:13:48.263Z,0
2017-08-12T01:14:49.800Z,0
2017-08-12T01:15:51.267Z,0
2017-08-12T01:16:52.754Z,0
2017-08-12T01:17:54.198Z,0
2017-08-12T01:18:55.824Z,0
2017-08-12T01:19:57.248Z,0
2017-08-12T01:20:58.902Z,0
2017-08-12T01:22:00.394Z,0
2017-08-12T01:23:01.969Z,0
2017-08-12T01:24:03.390Z,0
2017-08-12T01:25:04.902Z,0
2017-08-12T01:26:06.422Z,0
2017-08-12T01:27:07.971Z,0
2017-08-12T01:28:09.456Z,0
2017-08-12T01:29:10.972Z,0
2017-08-12T01:30:12.423Z,0
2017-08-12T01:31:13.954Z,0
2017-08-12T01:32:15.434Z,0
2017-08-12T01:33:16.918Z,0
2017-08-12T01:34:18.416Z,0
2017-08-12T01:35:19.989Z,0
2017-08-12T01:36:21.459Z,0
2017-08-12T01:37:23.012Z,0
2017-08-12T01:38:24.443Z,0
2017-08-12T01:39:25.993Z,0
2017-08-12T01:40:27.465Z,0
2017-08-12T01:41:28.978Z,0
2017-08-12T01:42:30.456Z,0
2017-08-12T01:43:32.010Z,0
2017-08-12T01:44:33.460Z,0
2017-08-12T01:45:35.000Z,0
2017-08-12T01:46:36.465Z,0
2017-08-12T01:47:37.971Z,0
2017-08-12T01:48:39.422Z,0
2017-08-12T01:49:41.027Z,0
2017-08-12T01:50:42.478Z,0
2017-08-12T01:51:44.046Z,0
2017-08-12T01:52:45.518Z,0
2017-08-12T01:53:47.080Z,0
2017-08-12T01:54:48.536Z,0
2017-08-12T01:55:50.094Z,0
2017-08-12T01:56:51.553Z,0
2017-08-12T01:57:53.077Z,0
2017-08-12T01:58:54.533Z,0
2017-08-12T01:59:55.997Z,0
2017-08-12T02:00:57.430Z,0
2017-08-12T02:01:58.870Z,0
2017-08-12T02:03:00.278Z,0
2017-08-12T02:04:01.722Z,0
2017-08-12T02:05:03.137Z,0
2017-08-12T02:06:04.612Z,0
2017-08-12T02:07:05.988Z,0
2017-08-12T02:08:07.394Z,0
2017-08-12T02:09:08.774Z,0
2017-08-12T02:10:10.164Z,0
2017-08-12T02:11:11.550Z,0
2017-08-12T02:12:12.954Z,0
2017-08-12T02:13:14.331Z,0
2017-08-12T02:14:15.725Z,0
2017-08-12T02:15:17.140Z,0
2017-08-12T02:16:18.611Z,0
2017-08-12T02:17:20.014Z,0
2017-08-12T02:18:21.493Z,0
2017-08-12T02:19:22.872Z,0
2017-08-12T02:20:24.272Z,0
2017-08-12T02:21:25.653Z,0
2017-08-12T02:22:27.054Z,0
2017-08-12T02:23:28.436Z,0
2017-08-12T02:24:29.838Z,0
2017-08-12T02:25:31.213Z,0
2017-08-12T02:26:32.614Z,0
2017-08-12T02:27:34.150Z,0
2017-08-12T02:28:35.603Z,0
2017-08-12T02:29:36.993Z,0
2017-08-12T02:30:38.479Z,0
2017-08-12T02:31:39.874Z,0
2017-08-12T02:32:41.365Z,0
2017-08-12T02:33:42.755Z,0
2017-08-12T02:34:44.132Z,0
2017-08-12T02:35:45.508Z,0
2017-08-12T02:36:46.924Z,0
2017-08-12T02:37:48.308Z,0
2017-08-12T02:38:49.708Z,0
2017-08-12T02:39:51.099Z,0
2017-08-12T02:40:52.589Z,0
2017-08-12T02:41:53.970Z,0
2017-08-12T02:42:55.363Z,0
2017-08-12T02:43:56.744Z,0
2017-08-12T02:44:58.149Z,0
2017-08-12T02:45:59.543Z,0
2017-08-12T02:47:01.025Z,0
2017-08-12T02:48:02.411Z,0
2017-08-12T02:49:03.800Z,0
2017-08-12T02:50:05.181Z,0
2017-08-12T02:51:06.581Z,0
2017-08-12T02:52:07.958Z,0
2017-08-12T02:53:09.376Z,0
2017-08-12T02:54:10.741Z,0
2017-08-12T02:55:12.141Z,0
2017-08-12T02:56:13.521Z,0
2017-08-12T02:57:14.923Z,0
2017-08-12T02:58:16.488Z,0
2017-08-12T02:59:17.917Z,0
2017-08-12T03:00:23.625Z,0
2017-08-12T03:01:25.072Z,0
2017-08-12T03:02:26.569Z,0
2017-08-12T03:03:28.264Z,0
2017-08-12T03:04:29.724Z,0
2017-08-12T03:05:31.272Z,0
2017-08-12T03:06:32.700Z,0
2017-08-12T03:07:34.205Z,0
2017-08-12T03:08:35.676Z,0
2017-08-12T03:09:37.204Z,0
2017-08-12T03:10:38.731Z,0
2017-08-12T03:11:40.341Z,0
2017-08-12T03:12:41.800Z,0
2017-08-12T03:13:43.294Z,0
2017-08-12T03:14:44.776Z,0
2017-08-12T03:15:46.342Z,0
2017-08-12T03:16:47.822Z,0
2017-08-12T03:17:49.386Z,0
2017-08-12T03:18:50.889Z,0
2017-08-12T03:19:52.440Z,0
2017-08-12T03:20:53.929Z,0
2017-08-12T03:21:55.450Z,0
2017-08-12T03:22:56.914Z,0
2017-08-12T03:23:58.416Z,0
2017-08-12T03:24:59.900Z,0
2017-08-12T03:26:01.380Z,0
2017-08-12T03:27:02.896Z,0
2017-08-12T03:28:04.381Z,0
2017-08-12T03:29:05.849Z,0
2017-08-12T03:30:07.422Z,0
2017-08-12T03:31:08.866Z,0
2017-08-12T03:32:10.332Z,0
2017-08-12T03:33:11.783Z,0
2017-08-12T03:34:13.341Z,0
2017-08-12T03:35:14.804Z,0
2017-08-12T03:36:16.334Z,0
2017-08-12T03:37:17.776Z,0
2017-08-12T03:38:19.271Z,0
2017-08-12T03:39:20.816Z,4
2017-08-12T03:40:22.332Z,4
2017-08-12T03:41:23.793Z,4
2017-08-12T03:42:25.379Z,4
2017-08-12T03:43:26.859Z,4
2017-08-12T03:44:28.393Z,4
2017-08-12T03:45:29.826Z,4
2017-08-12T03:46:31.369Z,8
2017-08-12T03:47:32.864Z,8
2017-08-12T03:48:34.413Z,4
2017-08-12T03:49:35.849Z,8
2017-08-12T03:50:37.414Z,12
2017-08-12T03:51:38.882Z,12
2017-08-12T03:52:40.414Z,16
2017-08-12T03:53:41.819Z,16
2017-08-12T03:54:43.383Z,16
2017-08-12T03:55:44.832Z,20
2017-08-12T03:56:46.385Z,24
2017-08-12T03:57:47.817Z,24
2017-08-12T03:58:49.359Z,24
2017-08-12T03:59:50.810Z,28
2017-08-12T04:00:52.359Z,28
2017-08-12T04:01:53.901Z,28
2017-08-12T04:02:55.433Z,32
2017-08-12T04:03:56.916Z,36
2017-08-12T04:04:58.418Z,40
2017-08-12T04:05:59.865Z,44
2017-08-12T04:07:01.380Z,52
2017-08-12T04:08:02.824Z,60
2017-08-12T04:09:04.389Z,64
2017-08-12T04:10:05.871Z,76
2017-08-12T04:11:07.359Z,80
2017-08-12T04:12:08.828Z,88
2017-08-12T04:13:10.310Z,92
2017-08-12T04:14:11.798Z,92
2017-08-12T04:15:13.392Z,104
2017-08-12T04:16:14.818Z,108
2017-08-12T04:17:16.378Z,120
2017-08-12T04:18:17.862Z,136
2017-08-12T04:19:19.395Z,148
2017-08-12T04:20:20.850Z,160
2017-08-12T04:21:22.400Z,176
2017-08-12T04:22:23.857Z,196
2017-08-12T04:23:25.375Z,204
2017-08-12T04:24:26.858Z,188
2017-08-12T04:25:28.318Z,164
2017-08-12T04:26:29.806Z,152
2017-08-12T04:27:31.335Z,152
2017-08-12T04:28:32.770Z,160
2017-08-12T04:29:34.333Z,160
2017-08-12T04:30:35.961Z,168
2017-08-12T04:31:37.507Z,192
2017-08-12T04:32:39.005Z,220
2017-08-12T04:33:40.498Z,228
2017-08-12T04:34:42.046Z,232
2017-08-12T04:35:43.559Z,228
2017-08-12T04:36:45.021Z,232
2017-08-12T04:37:46.570Z,236
2017-08-12T04:38:48.034Z,236
2017-08-12T04:39:49.532Z,236
2017-08-12T04:40:51.035Z,252
2017-08-12T04:41:52.551Z,268
2017-08-12T04:42:54.002Z,288
2017-08-12T04:43:55.555Z,308
2017-08-12T04:44:57.032Z,324
2017-08-12T04:45:58.489Z,336
2017-08-12T04:46:59.941Z,364
2017-08-12T04:48:01.499Z,408
2017-08-12T04:49:02.992Z,500
2017-08-12T04:50:04.455Z,552
2017-08-12T04:51:05.927Z,564
2017-08-12T04:52:07.414Z,608
2017-08-12T04:53:08.911Z,668
2017-08-12T04:54:10.474Z,788
2017-08-12T04:55:11.944Z,892
2017-08-12T04:56:13.443Z,920
2017-08-12T04:57:14.873Z,900
2017-08-12T04:58:16.395Z,944
2017-08-12T04:59:17.851Z,1012
2017-08-12T05:00:19.382Z,1040
2017-08-12T05:01:20.850Z,1044
2017-08-12T05:02:22.386Z,1044
2017-08-12T05:03:23.843Z,1052
2017-08-12T05:04:25.400Z,1080
2017-08-12T05:05:26.872Z,1072
2017-08-12T05:06:28.504Z,1080
2017-08-12T05:07:29.974Z,1120
2017-08-12T05:08:31.524Z,1164
2017-08-12T05:09:32.993Z,1232
2017-08-12T05:10:34.518Z,1332
2017-08-12T05:11:35.996Z,1388
2017-08-12T05:12:37.577Z,1480
2017-08-12T05:13:39.005Z,1532
2017-08-12T05:14:40.428Z,1608
2017-08-12T05:15:41.878Z,1612
2017-08-12T05:16:43.328Z,1596
2017-08-12T05:17:44.723Z,1516
2017-08-12T05:18:46.154Z,1472
2017-08-12T05:19:47.536Z,1464
2017-08-12T05:20:48.982Z,1424
2017-08-12T05:21:50.435Z,1492
2017-08-12T05:22:51.847Z,1624
2017-08-12T05:23:53.260Z,1796
2017-08-12T05:24:54.732Z,2012
2017-08-12T05:25:56.124Z,2216
2017-08-12T05:26:57.634Z,2396
2017-08-12T05:27:59.012Z,2468
2017-08-12T05:29:00.504Z,2524
2017-08-12T05:30:01.911Z,2636
2017-08-12T05:31:03.372Z,2808
2017-08-12T05:32:04.745Z,2772
2017-08-12T05:33:06.274Z,2712
2017-08-12T05:34:07.674Z,2580
2017-08-12T05:35:09.179Z,2352
2017-08-12T05:36:10.575Z,2240
2017-08-12T05:37:12.018Z,2188
2017-08-12T05:38:13.394Z,2124
2017-08-12T05:39:14.903Z,2084
2017-08-12T05:40:16.351Z,2040
2017-08-12T05:41:17.781Z,1944
2017-08-12T05:42:19.199Z,1868
2017-08-12T05:43:20.667Z,1896
2017-08-12T05:44:22.057Z,1852
2017-08-12T05:45:23.582Z,1828
2017-08-12T05:46:24.983Z,1752
2017-08-12T05:47:26.448Z,1864
2017-08-12T05:48:27.873Z,1944
2017-08-12T05:49:29.323Z,1924
2017-08-12T05:50:30.709Z,2188
2017-08-12T05:51:32.209Z,2440
2017-08-12T05:52:33.605Z,2684
2017-08-12T05:53:35.189Z,2820
2017-08-12T05:54:36.657Z,3060
2017-08-12T05:55:38.270Z,3292
2017-08-12T05:56:39.726Z,3552
2017-08-12T05:57:41.301Z,3680
2017-08-12T05:58:42.800Z,3640
2017-08-12T05:59:44.364Z,3472
2017-08-12T06:00:45.865Z,3344
2017-08-12T06:01:47.612Z,3076
2017-08-12T06:02:49.070Z,3032
2017-08-12T06:03:50.554Z,2944
2017-08-12T06:04:52.097Z,2884
2017-08-12T06:05:54.614Z,2748
2017-08-12T06:06:56.016Z,2988
2017-08-12T06:07:57.538Z,3156
2017-08-12T06:08:58.935Z,3244
2017-08-12T06:10:05.097Z,3392
2017-08-12T06:11:06.498Z,3356
2017-08-12T06:12:09.004Z,3520
2017-08-12T06:13:10.408Z,4000
2017-08-12T06:14:12.951Z,4212
2017-08-12T06:15:14.369Z,4368
2017-08-12T06:16:15.806Z,4764
2017-08-12T06:17:17.208Z,4876
2017-08-12T06:18:18.733Z,4832
2017-08-12T06:19:20.112Z,4992
2017-08-12T06:20:21.645Z,5208
2017-08-12T06:21:23.131Z,5416
2017-08-12T06:22:24.724Z,5472
2017-08-12T06:23:26.216Z,5720
2017-08-12T06:24:27.816Z,5656
2017-08-12T06:25:29.327Z,5456
2017-08-12T06:26:30.901Z,6204
2017-08-12T06:27:32.362Z,6220
2017-08-12T06:28:33.858Z,6168
2017-08-12T06:29:35.288Z,5896
2017-08-12T06:30:36.808Z,5964
2017-08-12T06:31:38.277Z,6164
2017-08-12T06:32:39.829Z,6724
2017-08-12T06:33:41.266Z,7048
2017-08-12T06:34:42.857Z,6640
2017-08-12T06:35:44.213Z,6224
2017-08-12T06:36:45.722Z,6396
2017-08-12T06:37:47.133Z,6476
2017-08-12T06:38:48.811Z,6100
2017-08-12T06:39:50.460Z,6064
2017-08-12T06:40:52.474Z,5644
2017-08-12T06:41:54.199Z,6388
2017-08-12T06:42:56.416Z,6612
2017-08-12T06:43:58.817Z,5832
2017-08-12T06:45:00.934Z,4984
2017-08-12T06:46:02.654Z,4460
2017-08-12T06:47:04.347Z,4336
2017-08-12T06:48:05.927Z,4564
2017-08-12T06:49:07.510Z,5176
2017-08-12T06:50:09.024Z,6700
2017-08-12T06:51:10.678Z,7048
2017-08-12T06:52:12.209Z,6572
2017-08-12T06:53:13.881Z,6588
2017-08-12T06:54:15.460Z,6188
2017-08-12T06:55:17.151Z,6016
2017-08-12T06:56:18.737Z,5904
2017-08-12T06:57:20.370Z,5680
2017-08-12T06:58:21.910Z,5612
2017-08-12T06:59:23.503Z,5316
2017-08-12T07:00:25.013Z,5360
2017-08-12T07:01:26.670Z,5296
2017-08-12T07:02:28.228Z,5904
2017-08-12T07:03:29.847Z,6052
2017-08-12T07:04:31.400Z,6404
2017-08-12T07:05:33.006Z,7320
2017-08-12T07:06:34.573Z,7488
2017-08-12T07:07:36.200Z,7124
2017-08-12T07:08:37.784Z,9176
2017-08-12T07:09:39.364Z,9216
2017-08-12T07:10:40.884Z,9276
2017-08-12T07:11:42.500Z,9664
2017-08-12T07:12:44.097Z,9420
2017-08-12T07:13:45.787Z,9064
2017-08-12T07:14:47.318Z,9224
2017-08-12T07:15:48.988Z,10172
2017-08-12T07:16:50.645Z,10904
2017-08-12T07:17:52.307Z,11452
2017-08-12T07:18:53.895Z,11548
2017-08-12T07:19:55.542Z,12224
2017-08-12T07:20:57.087Z,11416
2017-08-12T07:21:58.732Z,12512
2017-08-12T07:23:00.323Z,14044
2017-08-12T07:24:01.917Z,13528
2017-08-12T07:25:03.375Z,13536
2017-08-12T07:26:04.986Z,15344
2017-08-12T07:27:06.495Z,15568
2017-08-12T07:28:08.719Z,15304
2017-08-12T07:29:10.305Z,15356
2017-08-12T07:30:12.033Z,15192
2017-08-12T07:31:13.584Z,12468
2017-08-12T07:32:15.227Z,10756
2017-08-12T07:33:17.324Z,11584
2017-08-12T07:34:19.501Z,11624
2017-08-12T07:35:21.726Z,10424
2017-08-12T07:36:23.641Z,10672
2017-08-12T07:37:25.266Z,10352
2017-08-12T07:38:27.219Z,10264
2017-08-12T07:39:30.582Z,11192
2017-08-12T07:40:33.028Z,11092
2017-08-12T07:41:36.209Z,11908
2017-08-12T14:18:43.673Z,22976
2017-08-12T14:19:45.182Z,20192
2017-08-12T14:20:46.718Z,20896
2017-08-12T14:21:48.133Z,20640
2017-08-12T14:22:49.635Z,18208
2017-08-12T14:23:51.097Z,15504
2017-08-12T14:24:52.785Z,15416
2017-08-12T14:25:54.215Z,15024
2017-08-12T14:26:55.754Z,16780
2017-08-12T14:27:57.148Z,17984
2017-08-12T14:28:58.732Z,18368
2017-08-12T14:30:00.183Z,17012
2017-08-12T14:31:01.689Z,13992
2017-08-12T14:32:03.149Z,9516
2017-08-12T14:33:04.799Z,8408
2017-08-12T14:34:06.264Z,8492
2017-08-12T14:35:07.729Z,7400
2017-08-12T14:36:09.198Z,6704
2017-08-12T14:37:10.673Z,7816
2017-08-12T14:38:12.106Z,7820
2017-08-12T14:39:13.665Z,7592
2017-08-12T14:40:15.226Z,8848
2017-08-12T14:41:16.696Z,12412
2017-08-12T14:42:18.117Z,16756
2017-08-12T14:43:19.656Z,24032
2017-08-12T14:44:21.128Z,38176
2017-08-12T14:45:22.700Z,42208
2017-08-12T14:46:24.196Z,37856
2017-08-12T14:47:25.838Z,36736
2017-08-12T14:48:27.326Z,41920
2017-08-12T14:49:28.884Z,50528
2017-08-12T14:50:30.414Z,51584
2017-08-12T14:51:31.959Z,54464
2017-08-12T14:52:33.496Z,40000
2017-08-12T14:53:35.034Z,31680
2017-08-12T14:54:36.528Z,28960
2017-08-12T14:55:38.036Z,32192
2017-08-12T14:56:39.436Z,31552
2017-08-12T14:57:41.175Z,24224
2017-08-12T14:58:42.742Z,22816
2017-08-12T14:59:44.327Z,24032
2017-08-12T15:00:45.727Z,27680
2017-08-12T15:01:47.281Z,22752
2017-08-12T15:02:48.848Z,19040
2017-08-12T15:03:50.379Z,17292
2017-08-12T15:04:51.975Z,19712
2017-08-12T15:05:53.584Z,20416
2017-08-12T15:06:55.006Z,20064
2017-08-12T15:07:56.487Z,22176
2017-08-12T15:08:57.995Z,27904
2017-08-12T15:10:00.781Z,27808
2017-08-12T15:11:03.286Z,26464
2017-08-12T15:12:05.119Z,22176
2017-08-12T15:13:06.634Z,20800
2017-08-12T15:14:08.346Z,24960
2017-08-12T15:15:09.849Z,30592
2017-08-12T15:16:11.464Z,34368
2017-08-12T15:17:12.904Z,39520
2017-08-12T15:18:14.549Z,34528
2017-08-12T15:19:15.937Z,28032
2017-08-12T15:20:17.423Z,33376
2017-08-12T15:21:18.831Z,33440
2017-08-12T15:22:20.655Z,58528
2017-08-12T15:23:22.046Z,33952
2017-08-12T15:24:23.526Z,33376
2017-08-12T15:25:24.985Z,28224
2017-08-12T15:26:28.807Z,25504
2017-08-12T15:27:32.728Z,24928
2017-08-12T15:28:37.058Z,33088
2017-08-12T15:30:47.135Z,30688
2017-08-12T15:31:51.531Z,28992
2017-08-12T15:32:56.418Z,25952
2017-08-12T15:34:01.179Z,24448
2017-08-12T15:35:02.504Z,25600
2017-08-12T15:36:04.274Z,26144
2017-08-12T15:37:05.709Z,24352
2017-08-12T15:38:07.502Z,23136
2017-08-12T15:39:08.946Z,21248
2017-08-12T15:40:10.643Z,19488
2017-08-12T15:41:12.182Z,16332
2017-08-12T15:42:13.913Z,14444
2017-08-12T15:43:15.586Z,14924
2017-08-12T15:44:17.486Z,14984
2017-08-12T15:45:18.997Z,15208
2017-08-12T15:46:20.544Z,14868
2017-08-12T15:47:22.093Z,13764
2017-08-12T15:48:23.708Z,12364
2017-08-12T15:49:25.473Z,10488
2017-08-12T15:50:27.274Z,8772
2017-08-12T15:51:28.795Z,7732
2017-08-12T15:52:30.388Z,7536
2017-08-12T15:53:32.052Z,7312
2017-08-12T15:54:34.916Z,7124
2017-08-12T15:55:36.322Z,7008
2017-08-12T15:56:37.930Z,7084
2017-08-12T15:57:39.563Z,7480
2017-08-12T15:58:41.578Z,8696
2017-08-12T15:59:43.408Z,11164
2017-08-12T16:00:45.275Z,14996
2017-08-12T16:01:46.963Z,18912
2017-08-12T16:02:48.659Z,20928
2017-08-12T16:03:50.389Z,44352
2017-08-12T16:04:52.208Z,59008
2017-08-12T16:05:53.873Z,50400
2017-08-12T16:06:56.056Z,61888
2017-08-12T16:07:57.966Z,63488
2017-08-12T16:08:59.757Z,48736
2017-08-12T16:10:01.599Z,54560
2017-08-12T16:11:03.714Z,50944
2017-08-12T16:12:05.578Z,52480
2017-08-12T16:13:07.579Z,53760
2017-08-12T16:14:09.497Z,45280
2017-08-12T16:15:11.262Z,48992
2017-08-12T16:16:13.149Z,50048
2017-08-12T16:17:15.220Z,50464
2017-08-12T16:18:16.856Z,49824
2017-08-12T16:19:18.938Z,49536
2017-08-12T16:20:20.532Z,46720
2017-08-12T16:21:22.273Z,46176
2017-08-12T16:22:24.013Z,44320
2017-08-12T16:23:26.045Z,40064
2017-08-12T16:24:27.698Z,34688
2017-08-12T16:25:29.688Z,32416
2017-08-12T16:26:31.449Z,30752
2017-08-12T16:27:33.411Z,32512
2017-08-12T16:28:35.257Z,25568
2017-08-12T16:29:37.329Z,33120
2017-08-12T16:30:39.157Z,30880
2017-08-12T16:31:40.998Z,31168
2017-08-12T16:32:42.652Z,15192
2017-08-12T16:33:44.492Z,12336
2017-08-12T16:34:46.070Z,12776
2017-08-12T16:35:48.168Z,13240
2017-08-12T16:36:49.878Z,14164
2017-08-12T16:37:52.319Z,16784
2017-08-12T16:38:54.538Z,33568
2017-08-12T16:39:57.058Z,21184
2017-08-12T16:40:59.201Z,19168
2017-08-12T16:42:00.851Z,16700
2017-08-12T16:43:02.625Z,14652
2017-08-12T16:44:06.564Z,10528
2017-08-12T16:45:09.892Z,7352
2017-08-12T16:46:13.428Z,6040
2017-08-12T16:47:17.031Z,6524
2017-08-12T16:48:20.272Z,7720
2017-08-12T16:49:24.153Z,7960
2017-08-12T16:50:28.169Z,8840
2017-08-12T16:51:31.897Z,11616
2017-08-12T16:52:35.517Z,11252
2017-08-12T16:53:39.107Z,9804
2017-08-12T16:54:43.492Z,8228
2017-08-12T16:55:47.213Z,7956
2017-08-12T16:56:50.859Z,8956
2017-08-12T16:57:52.352Z,9396
2017-08-12T16:58:53.971Z,8664
2017-08-12T16:59:55.541Z,8608
2017-08-12T17:00:57.117Z,8424
2017-08-12T17:01:58.749Z,7944
2017-08-12T17:03:00.497Z,7912
2017-08-12T17:04:02.183Z,7880
2017-08-12T17:05:03.895Z,7944
2017-08-12T17:06:05.607Z,7328
2017-08-12T17:07:07.267Z,6852
2017-08-12T17:08:08.900Z,6436
2017-08-12T17:09:10.613Z,6380
2017-08-12T17:10:12.141Z,6508
2017-08-12T17:11:14.035Z,7668
2017-08-12T17:12:15.679Z,8684
2017-08-12T17:13:17.639Z,9056
2017-08-12T17:14:19.310Z,8840
2017-08-12T17:15:20.998Z,7248
2017-08-12T17:16:22.595Z,6624
2017-08-12T17:17:24.307Z,6556
2017-08-12T17:18:26.027Z,6180
2017-08-12T17:19:27.837Z,5748
2017-08-12T17:20:29.539Z,5980
2017-08-12T17:21:31.311Z,5864
2017-08-12T17:22:32.946Z,5780
2017-08-12T17:23:34.780Z,5688
2017-08-12T17:24:36.338Z,6456
2017-08-12T17:25:38.194Z,5828
2017-08-12T17:26:40.298Z,5424
2017-08-12T17:27:42.873Z,4964
2017-08-12T17:28:44.433Z,5204
2017-08-12T17:29:46.157Z,6044
2017-08-12T17:30:47.821Z,7196
2017-08-12T17:31:49.620Z,7828
2017-08-12T17:32:51.321Z,7736
2017-08-12T17:33:53.142Z,6620
2017-08-12T17:34:54.696Z,4848
2017-08-12T17:35:56.594Z,4456
2017-08-12T17:36:58.101Z,3892
2017-08-12T17:37:59.901Z,3680
2017-08-12T17:39:01.598Z,3744
2017-08-12T17:40:03.174Z,3616
2017-08-12T17:41:04.672Z,3732
2017-08-12T17:42:06.441Z,4212
2017-08-12T17:43:07.971Z,4064
2017-08-12T17:44:09.647Z,3296
2017-08-12T17:45:11.165Z,2696
2017-08-12T17:46:12.991Z,2496
2017-08-12T17:47:14.757Z,2432
2017-08-12T17:48:16.618Z,2316
2017-08-12T17:49:18.406Z,2232
2017-08-12T17:50:20.253Z,2300
2017-08-12T17:51:21.786Z,2248
2017-08-12T17:52:23.642Z,2040
2017-08-12T17:53:25.295Z,1912
2017-08-12T17:54:27.154Z,1924
2017-08-12T17:55:28.704Z,2132
2017-08-12T17:56:30.321Z,2256
2017-08-12T17:57:31.962Z,2056
2017-08-12T17:58:33.891Z,1912
2017-08-12T17:59:35.569Z,2024
2017-08-12T18:00:37.283Z,2304
2017-08-12T18:01:38.786Z,2592
2017-08-12T18:02:40.531Z,2616
2017-08-12T18:03:42.025Z,2448
2017-08-12T18:04:43.832Z,2208
2017-08-12T18:05:45.521Z,2064
2017-08-12T18:06:47.081Z,2104
2017-08-12T18:07:48.631Z,2236
2017-08-12T18:08:50.318Z,2172
2017-08-12T18:09:51.803Z,1924
2017-08-12T18:10:53.519Z,1668
2017-08-12T18:11:55.137Z,1536
2017-08-12T18:12:56.796Z,1596
2017-08-12T18:13:58.342Z,1736
2017-08-12T18:15:00.199Z,1752
2017-08-12T18:16:01.874Z,1720
2017-08-12T18:17:03.829Z,1656
2017-08-12T18:18:05.408Z,1520
2017-08-12T18:19:07.271Z,1396
2017-08-12T18:20:09.038Z,1332
2017-08-12T18:21:10.626Z,1336
2017-08-12T18:22:12.328Z,1344
2017-08-12T18:23:14.160Z,1360
2017-08-12T18:24:16.527Z,1268
2017-08-12T18:25:22.856Z,1148
2017-08-12T18:26:24.391Z,1012
2017-08-12T18:27:29.702Z,860
2017-08-12T18:28:32.504Z,776
2017-08-12T18:29:35.212Z,776
2017-08-12T18:30:36.967Z,800
2017-08-12T18:31:38.766Z,864
2017-08-12T18:32:40.278Z,916
2017-08-12T18:33:42.265Z,880
2017-08-12T18:34:43.962Z,824
2017-08-12T18:35:45.721Z,804
2017-08-12T18:36:47.231Z,772
2017-08-12T18:37:49.092Z,724
2017-08-12T18:38:50.634Z,704
2017-08-12T18:39:52.333Z,728
2017-08-12T18:40:54.112Z,756
2017-08-12T18:41:55.975Z,752
2017-08-12T18:42:57.668Z,720
2017-08-12T18:43:59.257Z,696
2017-08-12T18:45:01.052Z,668
2017-08-12T18:46:03.040Z,648
2017-08-12T18:47:04.568Z,652
2017-08-12T18:48:06.214Z,652
2017-08-12T18:49:07.868Z,632
2017-08-12T18:50:09.685Z,592
2017-08-12T18:51:11.532Z,548
2017-08-12T18:52:16.761Z,488
2017-08-12T18:53:18.307Z,416
2017-08-12T18:54:20.263Z,364
2017-08-12T18:55:21.951Z,340
2017-08-12T18:56:23.891Z,324
2017-08-12T18:57:25.396Z,316
2017-08-12T18:58:27.192Z,312
2017-08-12T18:59:28.675Z,300
2017-08-12T19:00:30.318Z,280
2017-08-12T19:01:31.831Z,260
2017-08-12T19:02:33.548Z,236
2017-08-12T19:03:35.128Z,208
2017-08-12T19:04:36.908Z,172
2017-08-12T19:05:38.456Z,148
2017-08-12T19:06:40.300Z,136
2017-08-12T19:07:42.028Z,128
2017-08-12T19:08:43.927Z,120
2017-08-12T19:09:45.676Z,112
2017-08-12T19:10:47.727Z,108
2017-08-12T19:11:49.498Z,104
2017-08-12T19:12:51.255Z,96
2017-08-12T19:13:52.969Z,84
2017-08-12T19:14:54.779Z,68
2017-08-12T19:15:56.484Z,56
2017-08-12T19:16:58.218Z,48
2017-08-12T19:17:59.911Z,44
2017-08-12T19:19:01.722Z,40
2017-08-12T19:20:03.319Z,36
2017-08-12T19:21:05.070Z,32
2017-08-12T19:22:06.861Z,24
2017-08-12T19:23:08.422Z,24
2017-08-12T19:24:10.071Z,16
2017-08-12T19:25:11.900Z,16
2017-08-12T19:26:13.610Z,12
2017-08-12T19:27:15.509Z,12
2017-08-12T19:28:17.059Z,12
2017-08-12T19:29:19.012Z,12
2017-08-12T19:30:20.526Z,12
2017-08-12T19:31:22.266Z,8
2017-08-12T19:32:23.809Z,8
2017-08-12T19:33:25.652Z,4
2017-08-12T19:34:27.184Z,4
2017-08-12T19:35:28.782Z,4
2017-08-12T19:36:30.384Z,4
2017-08-12T19:37:31.974Z,0
2017-08-12T19:38:33.459Z,0
2017-08-12T19:39:35.245Z,0
2017-08-12T19:40:36.694Z,0
2017-08-12T19:41:38.442Z,0
2017-08-12T19:42:39.907Z,0
2017-08-12T19:43:41.481Z,0
2017-08-12T19:44:42.990Z,0
2017-08-12T19:45:44.695Z,0
2017-08-12T19:46:46.259Z,0
2017-08-12T19:47:48.809Z,0
2017-08-12T19:48:50.291Z,0
2017-08-12T19:49:51.970Z,0
2017-08-12T19:50:53.499Z,0
2017-08-12T19:51:55.159Z,0
2017-08-12T19:52:56.654Z,0
2017-08-12T19:53:58.380Z,0
2017-08-12T19:54:59.844Z,0
2017-08-12T19:56:01.505Z,0
2017-08-12T19:57:03.009Z,0
2017-08-12T19:58:04.684Z,0
2017-08-12T19:59:06.135Z,0
2017-08-12T20:00:07.913Z,0
2017-08-12T20:01:09.368Z,0
2017-08-12T20:02:11.101Z,0
2017-08-12T20:03:12.590Z,0
2017-08-12T20:04:14.277Z,0
2017-08-12T20:05:15.774Z,0
2017-08-12T20:06:17.482Z,0
2017-08-12T20:07:19.059Z,0
2017-08-12T20:08:20.722Z,0
2017-08-12T20:09:22.244Z,0
2017-08-12T20:10:23.704Z,0
2017-08-12T20:11:25.203Z,0
2017-08-12T20:12:26.660Z,0
2017-08-12T20:13:28.192Z,0
2017-08-12T20:14:30.302Z,0
2017-08-12T20:15:31.789Z,0
2017-08-12T20:16:33.410Z,0
2017-08-12T20:17:34.907Z,0
2017-08-12T20:18:36.576Z,0
2017-08-12T20:19:38.051Z,0
2017-08-12T20:20:39.784Z,0
2017-08-12T20:21:41.236Z,0
2017-08-12T20:22:42.986Z,0
2017-08-12T20:23:44.448Z,0
2017-08-12T20:24:46.168Z,0
2017-08-12T20:25:47.662Z,0
2017-08-12T20:26:49.322Z,0
2017-08-12T20:27:50.773Z,0
2017-08-12T20:28:52.517Z,0
2017-08-12T20:29:53.986Z,0
2017-08-12T20:30:55.721Z,0
2017-08-12T20:31:57.204Z,0
2017-08-12T20:32:58.912Z,0
2017-08-12T20:34:00.431Z,0
2017-08-12T20:35:02.088Z,0
2017-08-12T20:36:03.525Z,0
2017-08-12T20:37:05.240Z,0
2017-08-12T20:38:06.910Z,0
2017-08-12T20:39:08.488Z,0
2017-08-12T20:40:09.984Z,0
2017-08-12T20:41:11.640Z,0
2017-08-12T20:42:13.101Z,0
2017-08-12T20:43:14.827Z,0
2017-08-12T20:44:16.285Z,0
2017-08-12T20:45:17.989Z,0
2017-08-12T20:46:19.457Z,0
2017-08-12T20:47:21.222Z,0
2017-08-12T20:48:22.708Z,0
2017-08-12T20:49:24.445Z,0